Zhytomyr, Ukraine
Current Conditions -  °F | °C
As of 11:00 PM on Sunday 21 Dec 2014 (Local Time) from UKKK Reporting Station
Broken Clouds Broken Clouds  
Wind Chill: 28°   Ceiling: 3600
Heat Index: 36°   Visibility: 6mi
Dew Point: 32°   Wind: 11mph
Humidity: 87%   Direction: 290°WNW
Pressure: 29.91"   Gusts: NA
Location:  50.25°N, 28.67°E
Report Text: UKKK 212000Z 29005MPS 9999 SCT011 BKN036 02/M00 Q1013 26290057 NOSIG
Loading
Personal Weather Stations






























Interactive Weather Map New forecast layout! Learn more

10-Day Weather Forecast

Advertisements
Track Severe Weather on mobile